AirNav   Air Wisconsin pilot careers
 
 1183 users online  

1M8 Myricks Airport
Berkley, Massachusetts, USA

GOING TO BERKLEY?


FAA INFORMATION EFFECTIVE 09 NOVEMBER 2017

Location

FAA Identifier: 1M8
Lat/Long: 41-50-20.6000N / 071-01-35.3000W
41-50.343333N / 071-01.588333W
41.8390556 / -71.0264722
(estimated)
Elevation: 73 ft. / 22.3 m (surveyed)
Variation: 16W (1985)
From city: 3 miles SE of BERKLEY, MA
Time zone: UTC -5 (UTC -4 during Daylight Saving Time)
Zip code: 02779

Airport Operations

Airport use: Open to the public
Activation date: 02/1946
Control tower: no
ARTCC: BOSTON CENTER
FSS: BRIDGEPORT FLIGHT SERVICE STATION
NOTAMs facility: BDR (NOTAM-D service available)
Attendance: DAYLIGHT HOURS
Wind indicator: yes
Segmented circle: no

Airport Communications

CTAF: 122.9
WX ASOS at TAN (2.2 nm N): 132.675 (508-824-5005)
WX ASOS at EWB (10 nm S): PHONE 508-992-0195
WX ASOS at PYM (14 nm E): 135.625 (508-746-8003)
WX ASOS at PVD (19 nm W): 124.2 (401-734-2818)

Nearby radio navigation aids

VOR radial/distance  VOR name  Freq  Var
PVDr083/19.3PROVIDENCE VOR/DME115.6014W
BOSr199/31.1BOSTON VOR/DME112.7016W
MVYr340/32.4MARTHAS VINEYARD VOR/DME114.5015W
PUTr115/37.2PUTNAM VOR/DME117.4014W

 
NDB name  Hdg/Dist  Freq  Var  ID
TAUNTON208/2.222716WTAN - .- -.
ARMIN098/14.735615WAR .- .-.
MARSHFIELD241/22.036816WIMR .. -- .-.
SHAKER HILL186/37.625116WSKR ... -.- .-.
PROVINCETOWN265/38.438916WPVC .--. ...- -.-.

Airport Services

Fuel available: 100LL
Parking: tiedowns
Airframe service: MINOR
Powerplant service: MINOR

Runway Information

Runway 9/27

Dimensions: 2466 x 50 ft. / 752 x 15 m
Surface: turf, in good condition
RUNWAY 9  RUNWAY 27
Latitude: 41-50.286795N41-50.398608N
Longitude: 071-01.848488W071-01.326457W
Elevation: 65.2 ft.72.9 ft.
Gradient: 0.3% UP
Traffic pattern: leftleft
Obstructions: 80 ft. tree, 400 ft. from runway, 130 ft. right of centerline, 5:1 slope to clear67 ft. trees, 200 ft. from runway, 125 ft. right of centerline, 3:1 slope to clear

Airport Ownership and Management from official FAA records

Ownership: Privately-owned
Owner: MURRAY RANDALL
168 PADELFORD STREET
BERKLEY, MA 02779
Phone 508-822-2457
Manager: MURRAY RANDALL
168 PADELFORD STREET
BERKLEY, MA 02779
Phone 508-822-2457

Airport Operational Statistics

Aircraft based on the field: 2
Single engine airplanes: 2
    
Aircraft operations: avg 46/week *
83% local general aviation
17% transient general aviation
<1% military
* for 12-month period ending 28 May 2015

Additional Remarks

TREES NORTH.
AERIAL BANNER PICKUP & DROP OPNS ON AND INVOF ARPT.
WILDLIFE ON AND IN THE VICINITY OF AIRPORT.

Instrument Procedures

There are no published instrument procedures at 1M8.

Some nearby airports with instrument procedures:

KTAN - Taunton Municipal Airport - King Field (2 nm N)
KEWB - New Bedford Regional Airport (10 nm S)
1B9 - Mansfield Municipal Airport (12 nm NW)
KPYM - Plymouth Municipal Airport (14 nm E)
KPVD - Theodore Francis Green State Airport (19 nm W)
 
Loc | Ops | Rwys | IFR | FBO | Links
Com | Nav | Svcs | Stats | Notes


 
Area around 1M8 (Myricks Airport)
 
Road maps at: MapQuest Bing Google
 
Aerial photo
WARNING: Photo may not be current or correct
Aerial photo of 1M8 (Myricks Airport)
Photo by Barry Turner
Photo taken 01-Oct-2017
looking west.

Do you have a better or more recent aerial photo of Myricks Airport that you would like to share? If so, please send us your photo.

 
Sectional chart

 
Airport distance calculator
Flying to Myricks Airport? Find the distance to fly.

From to 1M8

Sunrise and sunset
Times for 21-Nov-2017
 Local
(UTC-5)
 Zulu
(UTC)
Morning civil twilight06:1111:11
Sunrise06:4211:42
Sunset16:1821:18
Evening civil twilight16:4921:49

Current date and time
Zulu (UTC)  21-Nov-2017 22:48:10
Local (UTC-5)  21-Nov-2017 17:48:10
 
METAR
KTAN 
3nm N 
212152Z AUTO 22012G16KT 10SM CLR 12/04 A3003 RMK AO2 SLP170 T01220044
KEWB 
10nm S 
212153Z 21014G20KT 10SM CLR 12/04 A3004 RMK AO2 SLP171 T01220044
KPYM 
14nm E 
212152Z AUTO 21010G22KT 10SM CLR 13/04 A3004 RMK AO2 PK WND 22026/2131 SLP173 T01280044
KPVD 
20nm W 
212151Z 21012KT 10SM FEW040 BKN250 12/04 A3005 RMK AO2 PK WND 22027/2101 SLP174 T01170039
TAF
KPVD 
20nm W 
212110Z 2121/2218 22010G22KT P6SM SCT250 FM220500 21005KT P6SM SCT100 BKN250 FM220900 20005KT P6SM -RA OVC050 FM221100 20004KT 4SM RA BR OVC015 FM221400 VRB03KT 2SM -RA BR OVC008
NOTAMs
Click for the latest NOTAMs
NOTAMs are issued by the DoD/FAA and will open in a separate window not controlled by AirNav.

 

 
 

Would you like to see your business listed on this page?

 If your business provides an interesting product or service to pilots, flight crews, aircraft, or users of the Myricks Airport, you should consider listing it here.  To start the listing process, click on the button below
 
Add a business
 

Other Pages about Myricks Airport

Update a link
 
Copyright © AirNav, LLC. All rights reserved. Privacy Policy  Contact